Cridersville, Ohio
Current Conditions -  °F | °C
As of 4:53 AM on Tuesday 27 Jan 2015 (Local Time) from KAOH Reporting Station
Haze Haze  
Wind Chill:   Ceiling: Unl
Heat Index:   Visibility: 5mi
Dew Point:   Wind: 0mph
Humidity: 80%   Direction: NA
Pressure: 29.95"   Gusts: NA
Location:  40.6673°N, 84.1324°W
Report Text: KAOH 270953Z AUTO 00000KT 5SM HZ FEW110 M13/M16 A2995 RMK AO2 SLP159 T11331161
Loading
Personal Weather Stations






























Interactive Weather Map New forecast layout! Learn more

10-Day Weather Forecast

Advertisements
Track Severe Weather on mobile